Time;durP1;ratioP1;P1;durP2;ratioP2;P2;SDS_P1;SDS_P2;PMS_P1;PMS_P2;Temp;Humidity;BMP_temperature;BMP_pressure;BME280_temperature;BME280_humidity;BME280_pressure;Samples;Min_cycle;Max_cycle;Signal;HPM_P1;HPM_P2
2022/03/07 00:01:09;;;;;;;11.38;7.47;;;;;;;0.62;40.11;98448.50;12646866;23;20024;-79
2022/03/07 00:06:30;;;;;;;12.05;7.63;;;;;;;0.61;40.11;98457.25;12648045;23;20043;-79
2022/03/07 00:11:52;;;;;;;11.43;7.78;;;;;;;0.57;40.29;98450.00;12647760;23;20400;-79
2022/03/07 00:17:13;;;;;;;12.80;8.32;;;;;;;0.54;40.31;98450.28;12667199;23;20381;-79
2022/03/07 00:22:34;;;;;;;12.68;7.50;;;;;;;0.49;40.38;98443.59;12627378;23;20022;-80
2022/03/07 00:27:57;;;;;;;11.27;6.75;;;;;;;0.42;39.94;98460.63;12667954;23;20092;-80
2022/03/07 00:33:18;;;;;;;12.07;7.38;;;;;;;0.45;40.53;98469.84;12608078;23;20073;-80
2022/03/07 00:38:39;;;;;;;10.20;7.13;;;;;;;0.45;40.53;98461.59;12626900;23;20311;-79
2022/03/07 00:44:00;;;;;;;13.10;7.45;;;;;;;0.44;40.49;98460.09;12647560;23;20018;-80
2022/03/07 00:49:23;;;;;;;10.65;7.38;;;;;;;0.44;40.38;98463.59;12607860;23;20030;-79
2022/03/07 00:54:44;;;;;;;10.20;7.28;;;;;;;0.39;40.70;98458.16;12606032;23;20018;-79
2022/03/07 01:00:06;;;;;;;10.32;7.05;;;;;;;0.43;40.98;98472.34;12606566;23;20081;-80
2022/03/07 01:05:27;;;;;;;11.40;7.78;;;;;;;0.46;40.85;98460.34;12607157;23;20366;-80
2022/03/07 01:10:48;;;;;;;12.50;7.43;;;;;;;0.43;41.12;98453.13;12627053;23;20077;-80
2022/03/07 01:16:10;;;;;;;10.07;7.28;;;;;;;0.50;41.04;98458.06;12627569;23;20021;-80
2022/03/07 01:21:31;;;;;;;10.88;8.20;;;;;;;0.56;41.45;98453.28;12627242;23;20046;-80
2022/03/07 01:26:52;;;;;;;14.55;8.80;;;;;;;0.52;41.57;98447.31;12607494;23;20097;-80
2022/03/07 01:32:14;;;;;;;15.02;9.18;;;;;;;0.52;41.74;98452.81;12641593;23;20085;-80
2022/03/07 01:37:35;;;;;;;12.65;8.82;;;;;;;0.49;41.75;98442.84;12648686;23;20037;-80
2022/03/07 01:42:57;;;;;;;13.43;9.15;;;;;;;0.45;42.22;98434.13;12668750;23;20096;-80
2022/03/07 01:48:18;;;;;;;14.82;9.73;;;;;;;0.43;42.88;98431.16;12667476;23;20037;-80
2022/03/07 01:53:39;;;;;;;13.57;8.65;;;;;;;0.32;43.56;98431.97;12638367;23;20191;-80
2022/03/07 01:59:02;;;;;;;13.32;9.05;;;;;;;0.33;43.24;98427.22;12648183;23;20022;-80
2022/03/07 02:04:23;;;;;;;15.75;9.57;;;;;;;0.33;42.92;98433.44;12655801;23;20073;-80
2022/03/07 02:09:44;;;;;;;14.80;9.98;;;;;;;0.36;42.92;98424.19;12648363;23;20021;-80
2022/03/07 02:15:08;;;;;;;14.05;9.60;;;;;;;0.31;43.62;98419.50;12669974;23;20013;-79
2022/03/07 02:20:30;;;;;;;14.88;10.02;;;;;;;0.28;43.82;98421.22;12629109;23;20022;-79
2022/03/07 02:25:52;;;;;;;14.02;10.63;;;;;;;0.27;44.24;98419.00;12629999;23;20101;-80
2022/03/07 02:31:20;;;;;;;15.73;10.23;;;;;;;0.21;44.11;98416.31;12655859;23;20026;-80
2022/03/07 02:36:42;;;;;;;13.35;9.48;;;;;;;0.18;44.81;98417.28;12671366;23;20017;-80
2022/03/07 02:42:05;;;;;;;15.63;10.48;;;;;;;0.18;44.88;98424.78;12654515;23;20058;-80
2022/03/07 02:47:26;;;;;;;13.68;10.00;;;;;;;0.21;44.91;98424.53;12674803;23;20131;-80
2022/03/07 02:52:47;;;;;;;13.75;9.82;;;;;;;0.15;45.09;98418.31;12676154;23;20021;-80
2022/03/07 02:58:08;;;;;;;14.60;10.05;;;;;;;0.12;45.70;98419.34;12674823;23;20020;-79
2022/03/07 03:03:29;;;;;;;15.27;9.73;;;;;;;0.07;45.08;98422.84;12655417;23;20411;-80
2022/03/07 03:08:50;;;;;;;12.82;8.80;;;;;;;0.08;46.38;98426.34;12655775;23;20479;-80
2022/03/07 03:14:11;;;;;;;12.50;8.63;;;;;;;0.08;45.85;98421.59;12675506;23;20018;-80
2022/03/07 03:19:32;;;;;;;15.15;8.82;;;;;;;0.03;45.70;98416.16;12654344;23;20018;-80
2022/03/07 03:24:53;;;;;;;11.00;8.27;;;;;;;0.05;46.62;98425.38;12675653;23;20022;-80
2022/03/07 03:30:14;;;;;;;13.15;9.55;;;;;;;-0.01;46.69;98419.16;12667317;23;20052;-80
2022/03/07 03:35:38;;;;;;;12.45;8.50;;;;;;;0.02;46.66;98426.38;12654720;23;20022;-80
2022/03/07 03:40:59;;;;;;;14.07;8.65;;;;;;;0.03;46.67;98427.13;12655812;23;20085;-80
2022/03/07 03:46:21;;;;;;;12.45;9.00;;;;;;;-0.02;47.62;98431.38;12652300;23;20044;-80
2022/03/07 03:51:42;;;;;;;13.82;9.02;;;;;;;-0.04;47.33;98417.44;12653916;23;20065;-79
2022/03/07 03:57:03;;;;;;;14.55;9.73;;;;;;;-0.09;47.92;98420.97;12670913;23;20069;-79
2022/03/07 04:02:24;;;;;;;16.98;9.80;;;;;;;-0.01;47.21;98422.63;12630905;23;20017;-80
2022/03/07 04:07:45;;;;;;;13.80;9.95;;;;;;;0.03;47.60;98433.38;12665152;23;20021;-79
2022/03/07 04:13:06;;;;;;;16.20;10.95;;;;;;;-0.01;47.89;98424.63;12643691;23;20025;-79
2022/03/07 04:18:26;;;;;;;16.27;10.75;;;;;;;-0.05;47.77;98424.91;12664519;23;20025;-81
2022/03/07 04:23:47;;;;;;;15.95;11.10;;;;;;;-0.06;48.24;98430.91;12624705;23;20014;-80
2022/03/07 04:29:08;;;;;;;17.00;12.02;;;;;;;-0.09;48.39;98432.69;12642360;23;20044;-79
2022/03/07 04:34:29;;;;;;;16.15;11.38;;;;;;;0.00;48.69;98428.91;12664158;23;20022;-80
2022/03/07 04:39:50;;;;;;;17.88;12.00;;;;;;;0.04;48.68;98423.88;12643448;23;20018;-80
2022/03/07 04:45:11;;;;;;;14.70;11.60;;;;;;;-0.01;48.97;98424.63;12642435;23;20102;-80
2022/03/07 04:50:32;;;;;;;15.18;11.90;;;;;;;-0.06;48.90;98414.44;12662322;23;20014;-80
2022/03/07 04:55:54;;;;;;;16.27;11.82;;;;;;;-0.03;49.26;98407.94;12662230;23;20153;-80
2022/03/07 05:01:15;;;;;;;17.42;10.23;;;;;;;-0.07;49.14;98393.75;12621247;23;20073;-79
2022/03/07 05:06:38;;;;;;;14.88;11.07;;;;;;;-0.06;49.15;98397.97;12639838;23;20101;-80
2022/03/07 05:11:59;;;;;;;14.50;10.23;;;;;;;-0.03;49.19;98399.69;12619817;23;20025;-79
2022/03/07 05:17:19;;;;;;;13.75;10.48;;;;;;;0.03;49.10;98388.69;12639166;23;20023;-80
2022/03/07 05:22:40;;;;;;;15.05;10.45;;;;;;;0.04;49.12;98412.16;12658821;23;20314;-80
2022/03/07 05:28:01;;;;;;;13.15;10.20;;;;;;;0.07;49.17;98433.84;12659173;23;20017;-79
2022/03/07 05:33:23;;;;;;;15.32;10.68;;;;;;;0.10;49.92;98438.34;12660280;23;20070;-80
2022/03/07 05:38:44;;;;;;;15.27;12.10;;;;;;;0.11;49.85;98453.53;12659013;23;20024;-79
2022/03/07 05:44:05;;;;;;;13.98;10.73;;;;;;;0.13;50.42;98444.81;12637638;23;20022;-80
2022/03/07 05:49:26;;;;;;;16.17;11.65;;;;;;;0.21;50.03;98460.22;12657425;23;20064;-79
2022/03/07 05:54:47;;;;;;;14.88;11.07;;;;;;;0.25;50.33;98457.94;12657571;23;20018;-80
2022/03/07 06:00:09;;;;;;;13.80;10.98;;;;;;;0.30;49.91;98455.69;12657014;23;20014;-80
2022/03/07 06:05:31;;;;;;;18.15;11.35;;;;;;;0.34;50.20;98472.66;12640701;23;20136;-80
2022/03/07 06:10:53;;;;;;;16.73;10.63;;;;;;;0.39;50.48;98469.13;12640592;23;20414;-80
2022/03/07 06:16:14;;;;;;;17.00;11.40;;;;;;;0.47;50.03;98464.56;12632062;23;20094;-80
2022/03/07 06:21:35;;;;;;;15.18;9.85;;;;;;;0.52;50.69;98472.78;12621129;23;20029;-80
2022/03/07 06:26:57;;;;;;;15.48;10.18;;;;;;;0.59;50.18;98484.50;12621407;23;20029;-80
2022/03/07 06:32:20;;;;;;;15.73;10.02;;;;;;;0.68;50.43;98490.44;12640565;23;20492;-80
2022/03/07 06:37:51;;;;;;;15.40;9.27;;;;;;;0.75;50.18;98489.88;12661794;23;20051;-79
2022/03/07 06:43:12;;;;;;;14.32;9.82;;;;;;;0.86;50.22;98481.53;12661190;23;20018;-80
2022/03/07 06:48:35;;;;;;;14.90;9.30;;;;;;;0.94;49.75;98497.47;12660916;23;20085;-80
2022/03/07 06:53:56;;;;;;;16.48;9.77;;;;;;;1.04;49.84;98493.91;12642748;23;20417;-79
2022/03/07 06:59:17;;;;;;;13.77;9.38;;;;;;;1.05;50.07;98505.63;12641752;23;20014;-80
2022/03/07 07:04:38;;;;;;;15.55;8.88;;;;;;;1.07;50.21;98514.88;12640693;23;20018;-80
2022/03/07 07:10:00;;;;;;;18.83;8.27;;;;;;;1.08;49.79;98513.63;12662463;23;20018;-80
2022/03/07 07:15:21;;;;;;;14.52;8.68;;;;;;;1.13;49.64;98512.06;12660242;23;20414;-80
2022/03/07 07:20:41;;;;;;;12.32;8.40;;;;;;;1.25;49.58;98524.47;12662181;23;20022;-78
2022/03/07 07:26:05;;;;;;;13.05;7.40;;;;;;;1.28;49.52;98526.22;12642947;23;20028;-79
2022/03/07 07:31:25;;;;;;;11.98;7.00;;;;;;;1.35;49.19;98533.91;12629253;23;20049;-78
2022/03/07 07:36:47;;;;;;;12.90;7.85;;;;;;;1.37;49.79;98538.91;12647243;23;20018;-78
2022/03/07 07:42:09;;;;;;;12.25;7.43;;;;;;;1.46;49.06;98544.06;12660265;23;20018;-78
2022/03/07 07:47:39;;;;;;;12.77;7.60;;;;;;;1.46;48.79;98549.56;12641064;23;20306;-77
2022/03/07 07:53:00;;;;;;;13.05;7.70;;;;;;;1.53;48.91;98548.25;12658830;23;20014;-77
2022/03/07 07:58:56;;;;;;;11.95;6.40;;;;;;;1.66;48.23;98556.66;12640988;23;20049;-76
2022/03/07 08:05:19;;;;;;;10.10;5.97;;;;;;;1.80;48.06;98558.25;12650822;23;20457;-77
2022/03/07 08:11:08;;;;;;;10.18;6.45;;;;;;;2.05;48.48;98553.50;12649619;23;20021;-77
2022/03/07 08:17:00;;;;;;;7.85;5.65;;;;;;;2.42;47.74;98568.63;12650974;23;20358;-76
2022/03/07 08:22:49;;;;;;;12.02;5.82;;;;;;;2.50;46.60;98567.47;12658741;23;20425;-81
2022/03/07 08:28:13;;;;;;;11.77;6.15;;;;;;;2.80;47.19;98575.63;12631696;23;20033;-81
2022/03/07 08:33:34;;;;;;;7.30;4.85;;;;;;;3.08;46.34;98580.75;12604408;23;20050;-80
2022/03/07 08:38:56;;;;;;;6.15;3.70;;;;;;;3.24;45.77;98581.78;12626854;23;20037;-80
2022/03/07 08:44:45;;;;;;;9.02;4.40;;;;;;;4.31;44.45;98580.69;12594762;23;20030;-79
2022/03/07 08:50:08;;;;;;;6.25;4.30;;;;;;;6.24;42.98;98569.66;12633360;23;20042;-80
2022/03/07 08:55:30;;;;;;;7.18;4.43;;;;;;;9.29;42.35;98568.88;12604324;23;20074;-76
2022/03/07 09:18:05;;;;;;;7.38;3.65;;;;;;;12.79;29.81;98568.41;12641860;23;20014;-74
2022/03/07 09:23:55;;;;;;;8.25;3.60;;;;;;;10.85;32.54;98561.50;12618383;23;20030;-74
2022/03/07 09:37:57;;;;;;;3.33;2.72;;;;;;;13.33;30.65;98540.00;12699452;23;20024;-77
2022/03/07 09:43:18;;;;;;;5.18;2.63;;;;;;;25.82;25.98;98542.91;12637897;23;20290;-77
2022/03/07 09:48:39;;;;;;;5.00;2.30;;;;;;;26.79;20.75;98549.69;12637725;23;20065;-78
2022/03/07 09:54:00;;;;;;;3.03;2.20;;;;;;;22.42;20.44;98554.44;12656317;23;20018;-75
2022/03/07 09:59:22;;;;;;;3.47;2.38;;;;;;;17.15;21.54;98559.41;12677781;23;20013;-75
2022/03/07 10:04:44;;;;;;;3.92;2.28;;;;;;;16.18;24.03;98560.97;12666572;23;20014;-75
2022/03/07 10:10:07;;;;;;;3.45;2.00;;;;;;;19.69;19.93;98549.44;12616746;23;20073;-76
2022/03/07 10:15:27;;;;;;;5.60;2.10;;;;;;;17.78;20.81;98548.69;12656241;23;20014;-75
2022/03/07 10:20:49;;;;;;;3.22;2.17;;;;;;;21.27;21.13;98537.53;12656542;23;20014;-75
2022/03/07 10:26:12;;;;;;;4.13;2.13;;;;;;;26.21;17.90;98538.66;12636632;23;20022;-77
2022/03/07 10:31:37;;;;;;;3.53;1.70;;;;;;;31.73;15.15;98528.25;12626234;23;20262;-78
2022/03/07 10:36:58;;;;;;;2.65;1.40;;;;;;;35.78;10.98;98529.03;12656523;23;20021;-78
2022/03/07 10:42:20;;;;;;;3.80;1.30;;;;;;;35.34;9.94;98513.94;12636133;23;20401;-79
2022/03/07 10:47:41;;;;;;;1.90;1.05;;;;;;;33.85;7.96;98507.63;12656311;23;20022;-78
2022/03/07 10:53:04;;;;;;;1.70;0.82;;;;;;;35.16;8.87;98499.78;12636238;23;20069;-78
2022/03/07 10:58:25;;;;;;;1.77;1.15;;;;;;;36.64;6.67;98492.94;12639808;23;20025;-78
2022/03/07 11:03:46;;;;;;;2.35;1.27;;;;;;;36.08;5.93;98493.53;12619408;23;20033;-80
2022/03/07 11:09:08;;;;;;;2.65;1.40;;;;;;;27.22;8.46;98487.31;12659360;23;20329;-79
2022/03/07 11:14:30;;;;;;;3.13;1.55;;;;;;;23.46;10.88;98489.38;12680164;23;20077;-80
2022/03/07 11:19:54;;;;;;;2.90;1.17;;;;;;;21.52;11.50;98487.31;12658675;23;20014;-76
2022/03/07 11:25:15;;;;;;;3.35;1.30;;;;;;;20.61;12.71;98471.09;12619480;23;20170;-75
2022/03/07 11:30:41;;;;;;;3.75;1.50;;;;;;;18.35;13.75;98480.19;12670837;23;20073;-78
2022/03/07 11:36:04;;;;;;;3.72;1.58;;;;;;;17.20;14.83;98468.00;12639508;23;20026;-77
2022/03/07 11:41:28;;;;;;;3.65;1.50;;;;;;;17.64;16.47;98461.13;12637742;23;20468;-76
2022/03/07 11:46:51;;;;;;;1.75;1.17;;;;;;;17.21;16.01;98451.81;12659318;23;20022;-77
2022/03/07 11:52:16;;;;;;;4.65;1.20;;;;;;;17.85;16.14;98454.44;12639121;23;20018;-74
2022/03/07 11:57:39;;;;;;;2.33;1.50;;;;;;;17.24;16.28;98444.91;12658377;23;20025;-76
2022/03/07 12:03:14;;;;;;;2.40;1.80;;;;;;;15.55;17.74;98432.69;12634998;23;20018;-77
2022/03/07 12:08:46;;;;;;;3.88;1.70;;;;;;;14.40;19.25;98432.66;12638454;23;20022;-78
2022/03/07 12:14:09;;;;;;;3.42;2.00;;;;;;;14.01;19.26;98425.31;12659155;23;20014;-78
2022/03/07 12:20:01;;;;;;;4.65;1.70;;;;;;;13.52;19.47;98415.78;12637747;23;20452;-78
2022/03/07 12:25:25;;;;;;;2.25;1.67;;;;;;;12.60;20.08;98423.50;12661714;23;20032;-77
2022/03/07 12:30:46;;;;;;;4.03;1.77;;;;;;;11.85;20.65;98423.00;12632865;23;20037;-80
2022/03/07 12:36:14;;;;;;;4.97;1.90;;;;;;;12.71;21.21;98416.56;12673254;23;20306;-81
2022/03/07 12:41:39;;;;;;;3.60;1.50;;;;;;;12.94;20.96;98404.09;12662316;23;20022;-77
2022/03/07 12:47:00;;;;;;;2.85;2.03;;;;;;;12.24;22.30;98413.25;12681263;23;20022;-77
2022/03/07 12:52:31;;;;;;;3.95;1.67;;;;;;;11.09;23.28;98411.03;12660709;23;20021;-76
2022/03/07 12:57:58;;;;;;;3.00;1.50;;;;;;;10.32;23.83;98394.66;12660805;23;20021;-79
2022/03/07 13:03:24;;;;;;;3.38;1.63;;;;;;;9.80;23.71;98397.50;12666814;23;20382;-81
2022/03/07 13:08:47;;;;;;;2.35;1.60;;;;;;;9.64;24.84;98376.66;12669654;23;20021;-77
2022/03/07 13:14:09;;;;;;;6.97;1.83;;;;;;;9.84;25.60;98367.13;12671287;23;20021;-82
2022/03/07 13:19:30;;;;;;;3.10;1.80;;;;;;;10.10;25.82;98373.34;12678490;23;20022;-80
2022/03/07 13:24:52;;;;;;;4.15;1.48;;;;;;;10.27;26.32;98376.13;12665719;23;20029;-77
2022/03/07 13:30:14;;;;;;;3.83;1.70;;;;;;;10.44;25.80;98378.88;12657583;23;20025;-79
2022/03/07 13:35:37;;;;;;;3.22;1.73;;;;;;;10.54;25.84;98376.88;12691278;23;20040;-77
2022/03/07 13:41:08;;;;;;;3.53;1.85;;;;;;;10.21;26.45;98367.25;12678666;23;20018;-76
2022/03/07 13:46:29;;;;;;;5.68;2.00;;;;;;;9.95;26.32;98369.44;12660580;23;20014;-79
2022/03/07 13:51:50;;;;;;;3.33;1.63;;;;;;;9.63;26.84;98364.03;12673430;23;20069;-77
2022/03/07 13:57:11;;;;;;;4.93;1.83;;;;;;;9.32;27.55;98361.56;12660267;23;20014;-77
2022/03/07 14:02:35;;;;;;;5.00;1.50;;;;;;;8.92;27.40;98358.22;12639412;23;20022;-77
2022/03/07 14:07:57;;;;;;;4.57;2.42;;;;;;;8.63;28.20;98360.69;12660977;23;20041;-80
2022/03/07 14:13:54;;;;;;;5.57;1.60;;;;;;;8.31;28.74;98365.66;12663696;23;20041;-77
2022/03/07 14:19:15;;;;;;;4.93;1.75;;;;;;;8.21;29.46;98356.47;12637477;23;20048;-77
2022/03/07 14:24:36;;;;;;;2.90;1.63;;;;;;;8.08;29.24;98365.03;12677169;23;20045;-77
2022/03/07 14:29:57;;;;;;;5.10;1.83;;;;;;;7.91;29.43;98356.56;12652169;23;20097;-76
2022/03/07 14:35:17;;;;;;;3.38;1.80;;;;;;;7.77;30.56;98353.31;12644363;23;20018;-80
2022/03/07 14:40:38;;;;;;;2.92;1.77;;;;;;;7.64;30.48;98351.50;12660804;23;20020;-78
2022/03/07 14:46:01;;;;;;;5.68;1.90;;;;;;;7.55;30.15;98354.88;12664704;23;20014;-79
2022/03/07 14:51:22;;;;;;;3.25;1.77;;;;;;;7.47;31.04;98354.16;12697698;23;20021;-79
2022/03/07 14:56:43;;;;;;;2.78;1.75;;;;;;;7.65;32.05;98341.88;12662353;23;20014;-77
2022/03/07 15:02:32;;;;;;;4.15;2.10;;;;;;;8.00;31.40;98336.53;12652078;23;20026;-77
2022/03/07 15:07:53;;;;;;;6.28;1.92;;;;;;;8.25;31.51;98339.38;12661453;23;20018;-79
2022/03/07 15:13:14;;;;;;;7.63;2.28;;;;;;;8.28;31.83;98335.44;12663117;23;20002;-81
2022/03/07 15:18:35;;;;;;;5.97;2.00;;;;;;;8.40;31.74;98336.53;12683987;23;20065;-81
2022/03/07 15:23:59;;;;;;;4.28;2.55;;;;;;;8.17;31.71;98333.84;12708470;23;20014;-80
2022/03/07 15:29:20;;;;;;;3.67;2.10;;;;;;;7.93;32.72;98342.88;12666977;23;20441;-79
2022/03/07 15:34:49;;;;;;;4.70;2.30;;;;;;;7.80;32.45;98343.09;12661652;23;20014;-79
2022/03/07 15:40:10;;;;;;;3.55;2.00;;;;;;;7.83;33.46;98339.22;12662980;23;20097;-79
2022/03/07 15:46:01;;;;;;;7.47;2.72;;;;;;;7.70;33.33;98337.41;12637718;23;20034;-79
2022/03/07 15:51:57;;;;;;;3.70;2.20;;;;;;;7.65;33.38;98341.88;12651033;23;20104;-79
2022/03/07 15:57:18;;;;;;;6.40;2.08;;;;;;;7.45;33.91;98342.84;12660102;23;20325;-79
2022/03/07 16:02:38;;;;;;;3.67;1.98;;;;;;;7.25;33.70;98343.84;12679721;23;20085;-79
2022/03/07 16:08:12;;;;;;;3.05;1.98;;;;;;;7.03;34.38;98346.06;12661327;23;20088;-78
2022/03/07 16:14:02;;;;;;;5.72;1.88;;;;;;;6.80;34.25;98345.34;12651181;23;20025;-79
2022/03/07 16:19:24;;;;;;;6.93;2.78;;;;;;;6.48;35.42;98343.84;12659049;23;20025;-78
2022/03/07 16:24:46;;;;;;;6.35;2.97;;;;;;;6.25;35.08;98354.16;12659270;23;20014;-78
2022/03/07 16:38:46;;;;;;;9.95;2.42;;;;;;;5.95;35.96;98352.03;12680537;23;20026;-78
2022/03/07 16:44:38;;;;;;;4.63;2.80;;;;;;;5.88;36.69;98361.75;12648899;23;20025;-78
2022/03/07 16:50:01;;;;;;;;;;;;;;;5.76;36.84;98368.91;12638840;23;20100;-78
2022/03/07 16:55:23;;;;;;;4.97;2.95;;;;;;;5.56;36.64;98380.81;12659291;23;19917;-78
2022/03/07 17:00:44;;;;;;;6.55;2.70;;;;;;;5.46;37.44;98386.13;12677789;23;20022;-78
2022/03/07 17:06:05;;;;;;;9.35;3.20;;;;;;;5.45;37.45;98392.94;12649947;23;20437;-78
2022/03/07 17:11:55;;;;;;;5.15;2.83;;;;;;;5.50;37.57;98400.38;12669702;23;20029;-80
2022/03/07 17:17:16;;;;;;;6.97;3.78;;;;;;;5.52;37.63;98389.47;12638108;23;20018;-77
2022/03/07 17:22:38;;;;;;;5.88;3.10;;;;;;;5.43;38.41;98399.03;12637278;23;20026;-78
2022/03/07 17:27:58;;;;;;;7.00;3.25;;;;;;;5.37;38.38;98406.72;12617446;23;20025;-77
2022/03/07 17:33:21;;;;;;;7.18;3.40;;;;;;;5.37;38.74;98409.50;12680659;23;20345;-82
2022/03/07 17:38:44;;;;;;;6.95;3.58;;;;;;;5.21;38.76;98402.41;12698675;23;20035;-82
2022/03/07 17:50:23;;;;;;;8.80;5.28;;;;;;;4.98;39.74;98413.28;12798642;23;20016;-83
2022/03/07 17:55:47;;;;;;;8.73;5.03;;;;;;;4.82;39.82;98423.44;12735576;23;20080;-79
2022/03/07 18:01:07;;;;;;;7.00;3.90;;;;;;;4.70;39.34;98422.25;12739470;23;20397;-78
2022/03/07 18:06:29;;;;;;;7.68;4.10;;;;;;;4.60;40.36;98424.00;12758013;23;20013;-79
2022/03/07 18:11:50;;;;;;;5.50;3.75;;;;;;;4.51;40.75;98416.16;12759383;23;20013;-79
2022/03/07 18:17:38;;;;;;;8.30;4.05;;;;;;;4.49;40.59;98429.78;12757080;23;20139;-80
2022/03/07 18:22:59;;;;;;;7.45;4.15;;;;;;;4.52;40.84;98437.72;12748620;23;20013;-82
2022/03/07 18:28:22;;;;;;;6.32;4.40;;;;;;;4.54;41.49;98445.50;12780610;23;20028;-82
2022/03/07 18:33:43;;;;;;;6.85;4.20;;;;;;;4.58;41.25;98451.44;12751817;23;20017;-82
2022/03/07 18:39:04;;;;;;;9.48;5.63;;;;;;;4.61;41.81;98442.06;12762366;23;20025;-80
2022/03/07 18:44:25;;;;;;;9.75;4.57;;;;;;;4.73;41.68;98450.84;12762400;23;20024;-81
2022/03/07 18:49:47;;;;;;;9.55;4.93;;;;;;;4.80;41.62;98450.91;12744948;23;20029;-80
2022/03/07 18:55:10;;;;;;;8.70;5.32;;;;;;;4.85;42.03;98455.59;12746803;23;20017;-81
2022/03/07 19:00:31;;;;;;;8.32;5.05;;;;;;;4.94;42.11;98453.63;12771490;23;20050;-83
2022/03/07 19:05:58;;;;;;;7.07;4.55;;;;;;;4.94;42.62;98456.41;12748814;23;20025;-86
2022/03/07 19:11:28;;;;;;;7.88;4.43;;;;;;;5.00;42.19;98457.00;12780275;23;20041;-82
2022/03/07 19:16:49;;;;;;;11.82;5.70;;;;;;;5.04;42.42;98451.88;12724959;23;20025;-81
2022/03/07 19:22:10;;;;;;;10.77;4.85;;;;;;;4.99;42.77;98461.06;12790867;23;20023;-82
2022/03/07 19:27:31;;;;;;;6.72;4.30;;;;;;;4.92;42.68;98456.19;12803308;23;20037;-82
2022/03/07 19:32:53;;;;;;;7.68;4.28;;;;;;;4.96;42.74;98464.91;12769695;23;20033;-81
2022/03/07 19:38:13;;;;;;;6.13;4.53;;;;;;;4.95;42.70;98475.22;12764719;23;20013;-81
2022/03/07 19:43:35;;;;;;;7.07;3.90;;;;;;;4.85;42.59;98469.41;12766763;23;20013;-81
2022/03/07 19:48:56;;;;;;;9.80;4.90;;;;;;;4.77;42.71;98465.09;12744796;23;20021;-79
2022/03/07 19:54:19;;;;;;;10.43;5.97;;;;;;;4.65;43.32;98478.44;12794150;23;20017;-79
2022/03/07 19:59:42;;;;;;;;;;;;;;;4.52;44.06;98484.72;12782133;23;20020;-79
2022/03/07 20:05:04;;;;;;;11.60;6.05;;;;;;;4.44;43.23;98486.69;12792976;23;20012;-79
2022/03/07 20:10:53;;;;;;;11.75;6.35;;;;;;;4.39;43.67;98486.81;12791743;23;20339;-79
2022/03/07 20:16:22;;;;;;;10.75;5.25;;;;;;;4.29;44.02;98490.00;12806991;23;20336;-79
2022/03/07 20:22:13;;;;;;;11.43;5.10;;;;;;;4.21;43.48;98478.09;12838727;23;20056;-81
2022/03/07 20:27:34;;;;;;;8.90;5.18;;;;;;;4.12;44.29;98475.78;12855038;23;20036;-81
2022/03/07 20:32:55;;;;;;;9.73;5.63;;;;;;;4.07;44.12;98490.47;12833298;23;20017;-81
2022/03/07 20:39:26;;;;;;;9.45;5.38;;;;;;;4.02;45.08;98492.06;12822975;23;20020;-77
2022/03/07 20:45:18;;;;;;;8.50;4.82;;;;;;;3.87;44.26;98489.09;12773085;23;20100;-78
2022/03/07 20:51:14;;;;;;;8.20;5.05;;;;;;;3.71;44.53;98493.66;12786032;23;20021;-77
2022/03/07 20:57:06;;;;;;;12.38;5.50;;;;;;;3.59;44.98;98492.38;12787276;23;20025;-77
2022/03/07 21:02:27;;;;;;;7.57;4.77;;;;;;;3.50;44.38;98490.03;12779921;23;20549;-78
2022/03/07 21:08:16;;;;;;;8.40;5.05;;;;;;;3.38;44.99;98488.75;12785761;23;20033;-78
2022/03/07 21:14:06;;;;;;;10.32;4.70;;;;;;;3.39;45.25;98490.22;12755788;23;20336;-76
2022/03/07 21:21:00;;;;;;;8.18;4.55;;;;;;;3.36;45.86;98496.78;12804563;23;20025;-76
2022/03/07 21:26:33;;;;;;;8.50;4.45;;;;;;;3.40;45.91;98505.50;12842358;23;20028;-75
2022/03/07 21:32:22;;;;;;;11.10;4.78;;;;;;;3.39;45.82;98499.25;12816778;23;20021;-76
2022/03/07 21:38:43;;;;;;;7.80;3.95;;;;;;;3.37;45.68;98507.28;12832600;23;20452;-76
2022/03/07 21:44:34;;;;;;;8.10;4.75;;;;;;;3.30;45.83;98509.94;12833344;23;20331;-76
2022/03/07 21:50:23;;;;;;;8.43;4.30;;;;;;;3.17;45.98;98505.13;12831928;23;20021;-76
2022/03/07 21:55:47;;;;;;;8.27;3.90;;;;;;;3.09;46.45;98509.78;12842745;23;20024;-76
2022/03/07 22:01:21;;;;;;;7.10;4.20;;;;;;;2.99;46.82;98509.44;12819952;23;20017;-76
2022/03/07 22:06:42;;;;;;;8.95;4.40;;;;;;;2.93;46.27;98506.00;12822237;23;20024;-76
2022/03/07 22:21:17;;;;;;;6.97;4.00;;;;;;;2.78;46.90;98505.72;12883327;23;20021;-76
2022/03/07 22:26:39;;;;;;;7.35;4.43;;;;;;;2.71;47.30;98506.34;12840316;23;20343;-76
2022/03/07 22:32:27;;;;;;;7.22;4.18;;;;;;;2.69;47.65;98511.63;12818045;23;20021;-76
2022/03/07 22:47:02;;;;;;;9.43;4.97;;;;;;;2.53;47.30;98518.88;12862349;23;20017;-76
2022/03/07 22:52:58;;;;;;;8.10;4.78;;;;;;;2.53;47.94;98518.88;12844300;23;20023;-76
2022/03/07 22:59:20;;;;;;;7.35;4.03;;;;;;;2.43;48.62;98512.97;12835202;23;20143;-76
2022/03/07 23:30:54;;;;;;;6.30;3.80;;;;;;;2.25;49.25;98502.69;12865857;23;20024;-76
2022/03/07 23:37:23;;;;;;;5.65;3.60;;;;;;;2.23;48.99;98505.22;12834259;23;20020;-76
2022/03/07 23:51:54;;;;;;;9.10;4.30;;;;;;;2.15;48.72;98509.81;12865481;23;20025;-76
